x

South Kodiak - 310nm Ssw Of Kodiak, Ak (46066) Wave Buoy

1:50pm - Thu 23rd Oct 2014 All times are UTC.

  • Sig Wave height 17.7ft
  • Swell Direction
  • Peak Period 10s
  • Average Period 8s
  • Wind
    31mph, 38mph gusts
  • Sea Temp 48°f
  • Air Temp 46°f
  • Sea Pressure 1008.5mb

More Historic Weather Station data

Upgrade to MSW Pro to gain access to the past 30 days of data for over 8000 Wavebouys and Weather Stations around the globe.

Join Pro

Comparision Forecast

View Surf forecast
   
Thu 10/23 1:50pm 17.5ft 10s 8s 31 38 mph 1008.5mb 48f 46f
12:50pm 16.5ft 11s 8s 29 36 mph 1007.7mb 48f 47f
11:50am 18.5ft 11s 8s 31 40 mph 1006.6mb 48f 48f
10:50am 17.5ft 11s 8s 29 38 mph 1006mb 48f 48f
9:50am 18ft 11s 8s 34 43 mph 1004.9mb 48f 48f
8:50am 16.5ft 11s 8s 31 38 mph 1004.3mb 48f 48f
7:50am 18ft 10s 8s 31 38 mph 1003.3mb 48f 47f
6:50am 15ft 10s 8s 31 38 mph 1002.4mb 48f 47f
5:50am 15.5ft 10s 8s 31 38 mph 1001.4mb 48f 47f
4:50am 13.5ft 9s 7s 29 38 mph 1000.6mb 48f 47f
3:50am 12.5ft 8s 7s 31 40 mph 1000mb 48f 47f
2:50am 12ft 7s 7s 29 38 mph 999.1mb 48f 47f
1:50am 11ft 11s 7s 31 36 mph 998.4mb 48f 47f
12:50am 10ft 11s 7s 29 34 mph 997.5mb 48f 46f
Wed 10/22 11:50pm 10ft 11s 7s 27 34 mph 997.1mb 49f 46f
10:50pm 10ft 11s 7s 27 31 mph 996.8mb 49f 45f
9:50pm 10ft 10s 7s 22 29 mph 996.5mb 49f 43f
8:50pm 11ft 11s 8s 20 22 mph 995.9mb 49f 44f
7:50pm 11ft 11s 8s 20 25 mph 995.4mb 49f 44f
6:50pm 10.5ft 11s 8s 18 20 mph 994.8mb 49f 44f
5:50pm 10ft 10s 8s 18 22 mph 994.2mb 49f 42f
4:50pm 9ft 12s 7s 16 20 mph 993.7mb 49f 43f
3:50pm 9.5ft 11s 7s 13 20 mph 993.3mb 49f 42f
2:50pm 9.5ft 11s 7s 18 20 mph 993mb 48f 42f
1:50pm 10ft 11s 7s 18 22 mph 992.7mb 48f 42f
12:50pm 10ft 11s 7s 16 20 mph 992.6mb 48f 42f
11:50am 10ft 11s 7s 20 25 mph 992.7mb 49f 40f
10:50am 9.5ft 11s 7s 16 22 mph 992.4mb 49f 42f
9:50am 9ft 12s 7s 18 20 mph 992.2mb 49f 42f
8:50am 10.5ft 10s 8s 18 22 mph 992.4mb 49f 42f
7:50am 11ft 10s 8s 16 22 mph 992.1mb 49f 41f
6:50am 10.5ft 11s 8s 20 25 mph 991.8mb 49f 42f
5:50am 10ft 11s 7s 20 22 mph 991.8mb 49f 41f
4:50am 9.5ft 10s 8s 16 18 mph 991.5mb 49f 41f
3:50am 8.5ft 10s 7s 20 25 mph 991.3mb 49f 42f
2:50am 8ft 10s 7s 18 22 mph 991.4mb 49f 40f
1:50am 7ft 11s 7s 16 18 mph 991.2mb 49f 40f
12:50am  -   -   -  13 16 mph 991.5mb 49f 39f
Tue 10/21 11:50pm 8ft 10s 7s 11 13 mph 991.4mb 49f 40f
10:50pm 8ft 10s 7s 22 29 mph 991.8mb 49f 37f
9:50pm 9ft 10s 7s 16 22 mph 991.3mb 49f 42f
8:50pm 8.5ft 9s 7s 25 31 mph 991.1mb 49f 40f
7:50pm 9ft 10s 7s 18 22 mph 990.8mb 49f 43f
6:50pm 9ft 10s 7s 18 22 mph 990.7mb 49f 42f
5:50pm 9ft 10s 7s 11 16 mph 990.4mb 49f 39f
4:50pm 8ft 11s 7s 13 18 mph 990.2mb 49f 41f
3:50pm 8ft 10s 7s 13 18 mph 990.3mb 49f 40f
2:50pm 7.5ft 10s 7s 16 18 mph 990.3mb 49f 42f
1:50pm 7.5ft 10s 7s 18 29 mph 990.7mb 49f 40f
12:50pm 7ft 11s 7s 13 20 mph 990.9mb 49f 42f
11:50am 7ft 11s 7s 13 18 mph 991.2mb 49f 41f
10:50am 8ft 10s 7s 11 13 mph 991.5mb 49f 40f
9:50am 7.5ft 11s 7s 13 18 mph 991.6mb 49f 41f
8:50am 8ft 11s 6s 16 22 mph 991.6mb 49f 41f
7:50am 7.5ft 11s 6s 18 22 mph 991.6mb 49f 42f
6:50am 7.5ft 11s 7s 18 22 mph 991.5mb 49f 43f
5:50am 7ft 11s 6s 13 18 mph 991.4mb 49f 43f
4:50am 7ft 10s 6s 18 22 mph 991.4mb 49f 42f
3:50am 7ft 10s 6s 20 27 mph 991.3mb 49f 42f
2:50am 7ft 11s 6s 16 20 mph 991.1mb 49f 43f
1:50am 6ft 10s 6s 16 20 mph 990.9mb 49f 44f
12:50am 5ft 5s 5s 16 20 mph 990.9mb 49f 43f
Mon 10/20 11:50pm 5ft 5s 5s 18 22 mph 990.6mb 49f 43f
10:50pm 4.5ft 8s 5s 20 27 mph 990.3mb 49f 43f
9:50pm 4.5ft 8s 5s 20 25 mph 990.2mb 49f 43f
8:50pm 4.5ft 8s 5s 18 22 mph 990mb 49f 42f
7:50pm 4.5ft 8s 5s 11 16 mph 989.4mb 49f 43f
6:50pm 4.5ft 6s 5s 20 25 mph 988.7mb 49f 43f
4:50pm 5ft 7s 6s 16 18 mph 987.4mb 49f 42f
3:50pm 5.5ft 8s 6s 18 20 mph 986.9mb 49f 42f
2:50pm 5.5ft 8s 6s 18 22 mph 986.4mb 49f 41f
1:50pm 6ft 8s 6s 20 22 mph 986mb 49f 41f
12:50pm 5.5ft 7s 6s 16 20 mph 986mb 49f 42f
11:50am 6ft 8s 7s 13 18 mph 986.1mb 49f 43f
10:50am 6.5ft 8s 7s 11 13 mph 986.7mb 49f 42f
9:50am 6ft 8s 7s 9 11 mph 987.8mb 49f 42f
8:50am 6.5ft 8s 7s 4 7 mph 988.9mb 49f 42f
7:50am 6.5ft 8s 7s 9 13 mph 989.8mb 49f 42f
6:50am 7.5ft 8s 7s  -  2 mph 990.8mb 49f 43f
5:50am 8.5ft 9s 7s 7 9 mph 992.1mb 49f 43f
3:50am 9ft 10s 7s 11 16 mph 994.2mb 49f 44f
2:50am 9ft 9s 7s 11 16 mph 995.1mb 49f 43f
1:50am 10ft 9s 7s 16 22 mph 995.7mb 49f 44f
12:50am 11ft 8s 7s 25 34 mph 996.6mb 49f 42f
Sun 10/19 11:50pm 11.5ft 10s 7s 22 31 mph 997.2mb 49f 44f
10:50pm 11ft 8s 7s 22 29 mph 997.6mb 49f 45f
9:50pm 11.5ft 9s 7s 25 31 mph 997.9mb 49f 45f
8:50pm 13ft 10s 7s 25 31 mph 998.3mb 49f 45f
7:50pm 13ft 11s 7s 27 31 mph 998.4mb 49f 45f
6:50pm 15.5ft 11s 8s 29 36 mph 998.7mb 49f 43f
5:50pm 15ft 11s 8s 25 31 mph 998.6mb 49f 44f
4:50pm 14.5ft 11s 8s 27 34 mph 998.4mb 49f 45f
3:50pm 14ft 11s 8s 27 31 mph 998.7mb 49f 45f